עמוד ראשי
METAR-TAF:

METAR-TAF

שדות תעופה :

קוצ'במבה, בוליביה

קו רוחב: 17-25S, קו אורך: 066-11W, גובה: 2548מטר

תצפית מזג אוויר נוכחית

הדו"ח נערך לפני 18דקות, בשעה 19:00 UTC
רוח 4קשר מכיוון דרום
טמפרטורת 25 צלסיוס
לחות 15%
לחץ 1026 hPa
ראות 10 קילומטר או יותר

METAR: SLCB 171900Z 19004KT 9999 NSC 25/M03 Q1026

זמן: 15:18 (19:18 UTC)

תחזית

הדו"ח נערך לפני 3 שעות ו 18דקות, בשעה 16:00 UTC
תחזית בתוקף מ 17 ב 18 UTC עד 18 ב 18 UTC
רוח 6קשר מכיוון מערב
ראות 10 קילומטר או יותר
זמנית מ -
17 ב 19 UTC עד 17 ב 21 UTC
רוח 10קשר מכיוון צפון/צפון-מזרח
יעשה מ
18 ב 01 UTC עד 18 ב 03 UTC
רוח קשר מכיוון צפון

TAF: SLCB 171600Z 1718/1818 28006KT 9999 NSC TX27/1719Z TN02/1811Z TEMPO 1719/1721 03010KT BECMG 1801/1803 00000KT

תצפיות ותחזיות מזג אוויר לגבי יותר מ- 4,000 שדות תעופה ברחבי העולם. דוחות METAR ו- TAF.

התחנות הזמינות מסומנות בנקודות צהובות ואדומות על גבי המפה.

העבר את העכבר לנקודה הצבעונית על מנת לראות את שם התחנה.

לאחר מכן, לחץ כדי לראות את תוכן ואת תחזיות מזג האוויר.

כדי לשנות את המפה: לחץ על הכפתורים הירוקים עם הפלוס השחור כדי להתקרב; על הכפתור הירוק עם המקף כדי להתרחק; או בחיצים הירוקים למפות סמוכות.


METAR-TAF: